createdAt,value
2019-04-11T20:51:48.126Z,54.43
2019-04-11T20:53:00.511Z,54.24
2019-04-11T20:54:20.620Z,54.43
2019-04-11T20:55:30.791Z,54.33
2019-04-11T20:56:44.591Z,54.61
2019-04-11T20:57:54.761Z,54.52
2019-04-11T20:59:04.915Z,54.52
2019-04-11T21:00:18.104Z,54.52
2019-04-11T21:01:28.747Z,54.52
2019-04-11T21:02:38.884Z,54.8
2019-04-11T21:03:49.093Z,54.8
2019-04-11T21:05:03.760Z,54.71
2019-04-11T21:06:13.880Z,54.8
2019-04-11T21:07:24.028Z,54.9
2019-04-11T21:08:39.272Z,54.8
2019-04-11T21:09:49.409Z,54.8
2019-04-11T21:10:59.553Z,54.9
2019-04-11T21:12:12.912Z,55.18
2019-04-11T21:13:23.081Z,55.18
2019-04-11T21:14:33.210Z,55.28
2019-04-11T21:15:43.745Z,55.28
2019-04-11T21:16:53.885Z,55.09
2019-04-11T21:18:04.022Z,54.9
2019-04-11T21:19:14.167Z,54.8
2019-04-11T21:20:26.887Z,54.8
2019-04-11T21:21:37.037Z,54.8
2019-04-11T21:22:47.173Z,55.18
2019-04-11T21:24:03.485Z,54.8
2019-04-11T21:25:13.627Z,55.09
2019-04-11T21:26:23.731Z,55.28
2019-04-11T21:27:36.597Z,55.37
2019-04-11T21:28:46.724Z,55.66
2019-04-11T21:29:59.700Z,55.76
2019-04-11T21:31:10.084Z,55.85
2019-04-11T21:32:20.189Z,55.85
2019-04-11T21:33:37.487Z,55.76
2019-04-11T21:34:47.632Z,55.66
2019-04-11T21:35:57.796Z,56.13
2019-04-11T21:37:09.190Z,55.94
2019-04-11T21:38:19.316Z,56.32
2019-04-11T21:39:33.515Z,55.66
2019-04-11T21:40:43.633Z,56.23
2019-04-11T21:41:53.744Z,56.04
2019-04-11T21:43:05.875Z,56.42
2019-04-11T21:44:16.233Z,56.23
2019-04-11T21:45:26.372Z,55.85
2019-04-11T21:46:41.935Z,56.04
2019-04-11T21:47:54.742Z,56.13
2019-04-11T21:49:08.721Z,56.51
2019-04-11T21:50:18.860Z,56.32
2019-04-11T21:51:29.013Z,56.89
2019-04-11T21:52:43.255Z,57.09
2019-04-11T21:53:53.747Z,56.61
2019-04-11T21:55:03.916Z,56.51
2019-04-11T21:56:21.011Z,56.51
2019-04-11T21:57:30.878Z,56.51
2019-04-11T21:58:40.987Z,56.8
2019-04-11T21:59:55.093Z,56.8
2019-04-11T22:01:06.936Z,56.89
2019-04-11T22:02:17.048Z,56.89
2019-04-11T22:03:29.528Z,56.89
2019-04-11T22:04:39.668Z,56.89
2019-04-11T22:05:49.790Z,56.8
2019-04-11T22:07:03.919Z,56.8
2019-04-11T22:08:14.053Z,57.18
2019-04-11T22:09:24.165Z,57.46
2019-04-11T22:10:42.730Z,57.28
2019-04-11T22:11:52.855Z,57.09
2019-04-11T22:13:02.975Z,57.09
2019-04-11T22:14:15.618Z,57.65
2019-04-11T22:15:25.741Z,57.37
2019-04-11T22:16:35.884Z,57.18
2019-04-11T22:17:49.436Z,57.37
2019-04-11T22:18:59.544Z,57.56
2019-04-11T22:20:09.674Z,57.75
2019-04-11T22:21:23.855Z,57.65
2019-04-11T22:22:33.966Z,57.65
2019-04-11T22:23:51.262Z,57.56
2019-04-11T22:25:02.318Z,57.65
2019-04-11T22:26:12.439Z,57.56
2019-04-11T22:27:25.241Z,57.65
2019-04-11T22:28:35.359Z,57.56
2019-04-11T22:29:45.487Z,57.37
2019-04-11T22:30:58.327Z,57.94
2019-04-11T22:32:08.450Z,57.56
2019-04-11T22:33:18.319Z,57.37
2019-04-11T22:34:32.841Z,57.84
2019-04-11T22:35:42.957Z,57.91
2019-04-11T22:36:53.076Z,57.81
2019-04-11T22:38:05.335Z,57.94
2019-04-11T22:39:15.203Z,57.84
2019-04-11T22:40:25.311Z,57.65
2019-04-11T22:41:39.563Z,57.91
2019-04-11T22:42:49.695Z,57.94
2019-04-11T22:43:59.842Z,58.39
2019-04-11T22:45:13.225Z,57.72
2019-04-11T22:46:23.697Z,57.75
2019-04-11T22:47:35.858Z,57.84
2019-04-11T22:48:48.207Z,58.03
2019-04-11T22:49:58.336Z,58.13
2019-04-11T22:51:13.840Z,57.94
2019-04-11T22:52:23.954Z,57.94
2019-04-11T22:53:34.083Z,57.75
2019-04-11T22:54:48.346Z,57.84
2019-04-11T22:55:58.455Z,57.56
2019-04-11T22:57:11.616Z,57.72
2019-04-11T22:58:22.261Z,57.91
2019-04-11T22:59:32.116Z,58
2019-04-11T23:00:44.768Z,57.81
2019-04-11T23:01:57.023Z,57.72
2019-04-11T23:03:07.190Z,57.72
2019-04-11T23:04:20.176Z,58.1
2019-04-11T23:05:30.368Z,57.62
2019-04-11T23:06:40.233Z,58.29
2019-04-11T23:07:53.222Z,58.48
2019-04-11T23:09:05.783Z,58.76
2019-04-11T23:10:17.036Z,58.67
2019-04-11T23:11:27.735Z,58.29
2019-04-11T23:12:37.842Z,58.67
2019-04-11T23:13:50.969Z,58.29
2019-04-11T23:15:01.065Z,58.39
2019-04-11T23:16:11.996Z,58.67
2019-04-11T23:17:24.330Z,58.76
2019-04-11T23:18:34.458Z,58.48
2019-04-11T23:19:47.193Z,58.76
2019-04-11T23:20:58.502Z,58.29
2019-04-11T23:22:09.780Z,58.1
2019-04-11T23:23:21.998Z,58.29
2019-04-11T23:24:32.121Z,58.48
2019-04-11T23:25:42.219Z,57.81
2019-04-11T23:26:52.338Z,58.39
2019-04-11T23:28:02.445Z,58.48
2019-04-11T23:29:15.591Z,58.58
2019-04-11T23:30:26.144Z,58.76
2019-04-11T23:31:36.263Z,58.39
2019-04-11T23:32:46.112Z,58.39
2019-04-11T23:33:58.922Z,58.39
2019-04-11T23:35:09.047Z,58.39
2019-04-11T23:36:21.925Z,58.58
2019-04-11T23:37:32.129Z,58.58
2019-04-11T23:38:42.236Z,58.48
2019-04-11T23:39:53.632Z,58.67
2019-04-11T23:41:03.740Z,58.76
2019-04-11T23:42:13.851Z,58.67
2019-04-11T23:43:27.414Z,58.67
2019-04-11T23:44:37.542Z,58.67
2019-04-11T23:45:50.877Z,58.58
2019-04-11T23:47:01.036Z,58.58
2019-04-11T23:48:11.136Z,58.67
2019-04-11T23:49:24.693Z,58.76
2019-04-11T23:50:35.175Z,58.67
2019-04-11T23:51:45.278Z,58.58
2019-04-11T23:53:00.469Z,59.05
2019-04-11T23:54:10.587Z,58.95
2019-04-11T23:55:33.945Z,58.95
2019-04-11T23:56:44.069Z,58.95
2019-04-11T23:57:54.174Z,59.43
2019-04-11T23:59:06.867Z,59.33
